This is the latest recevied weather packets stored in our database for station/object KF0TNT. If no packets are shown the sender has not sent any weather packets the latest 1 day(s).
| Time | Temp. | Humidity | Pressure | Rain* | Wind** | Luminosity | Snow |
|---|---|---|---|---|---|---|---|
| 1778020576 | 1.11° C | 96% | 1012 hPa | 0.51 mm | 0.89 m/s, 144° | 55 W/m² | - |
| 1778020273 | 1.11° C | 96% | 1011.9 hPa | 0.51 mm | 0.89 m/s, 0° | 40 W/m² | - |
| 1778019964 | 1.11° C | 96% | 1012 hPa | 0.51 mm | 1.34 m/s, 333° | 50 W/m² | - |
| 1778019660 | 1.11° C | 96% | 1012.2 hPa | 0.51 mm | 0 m/s | 56 W/m² | - |
| 1778019357 | 1.11° C | 96% | 1011.9 hPa | 0 mm | 0.45 m/s, 18° | 64 W/m² | - |
| 1778019053 | 1.11° C | 96% | 1012 hPa | 0 mm | 0.45 m/s, 7° | 102 W/m² | - |
| 1778018751 | 1.11° C | 97% | 1011.9 hPa | 0 mm | 1.34 m/s, 357° | 123 W/m² | - |
| 1778018449 | 1.11° C | 97% | 1012.2 hPa | 0 mm | 1.34 m/s, 345° | 79 W/m² | - |
| 1778018147 | 1.11° C | 96% | 1011.9 hPa | 0 mm | 0.89 m/s, 92° | 77 W/m² | - |
| 1778017844 | 1.11° C | 96% | 1012.3 hPa | 0 mm | 0 m/s | 86 W/m² | - |
| 1778017542 | 1.11° C | 96% | 1012.3 hPa | 0 mm | 0 m/s | 96 W/m² | - |
| 1778017238 | 1.11° C | 96% | 1012.3 hPa | 0 mm | 0.89 m/s, 65° | 107 W/m² | - |
| 1778016937 | 1.11° C | 96% | 1012.5 hPa | 0.51 mm | 0 m/s | 114 W/m² | - |
| 1778016632 | 1.11° C | 96% | 1012.7 hPa | 0.51 mm | 0.45 m/s, 2° | 84 W/m² | - |
| 1778016329 | 1.11° C | 96% | 1012.4 hPa | 0 mm | 0.89 m/s, 177° | 108 W/m² | - |
| 1778016026 | 1.11° C | 95% | 1012.5 hPa | 0.51 mm | 0 m/s | 77 W/m² | - |
| 1778015724 | 1.67° C | 95% | 1012.9 hPa | 0.51 mm | 0.89 m/s, 117° | 67 W/m² | - |
| 1778015420 | 1.67° C | 95% | 1012.7 hPa | 0 mm | 0.89 m/s, 12° | 65 W/m² | - |
| 1778015117 | 1.67° C | 96% | 1012.7 hPa | 0.51 mm | 0.89 m/s, 231° | 92 W/m² | - |
| 1778014814 | 1.67° C | 96% | 1012.7 hPa | 0.51 mm | 1.79 m/s, 42° | 125 W/m² | - |
| 1778014512 | 1.67° C | 96% | 1013.2 hPa | 0 mm | 1.34 m/s, 0° | 91 W/m² | - |
| 1778014209 | 1.67° C | 96% | 1012.8 hPa | 0.51 mm | 0.45 m/s, 36° | 140 W/m² | - |
| 1778013907 | 1.67° C | 96% | 1012.9 hPa | 0.51 mm | 0.89 m/s, 191° | 148 W/m² | - |
| 1778013604 | 1.67° C | 95% | 1013.2 hPa | 0 mm | 1.34 m/s, 22° | 119 W/m² | - |
| 1778013300 | 1.67° C | 95% | 1013 hPa | 0 mm | 0.89 m/s, 143° | 140 W/m² | - |
* Rain latest hour (hover to see other rain measurements)
** Current wind speed in m/s (hover to see current wind gust speed)